Wind EuroAirport

Messzeit Windrichtung Windgeschwindigkeit [Knoten] Rückenwind Nordpiste [Knoten] METAR
2020-05-28 06:30 SW 220° 3 - LFSB 280430Z AUTO 22003KT CAVOK 09/07 Q1029 BECMG 36010KT
2020-05-28 06:00 S 190° 4 - LFSB 280400Z AUTO 19004KT CAVOK 09/08 Q1029 NOSIG
2020-05-28 05:30 SO 120° 2 - LFSB 280330Z AUTO 12002KT CAVOK 09/08 Q1029 NOSIG
2020-05-28 05:00 - 2 - LFSB 280300Z AUTO VRB02KT CAVOK 09/07 Q1029 NOSIG
2020-05-28 04:30 - 2 - LFSB 280230Z AUTO VRB02KT CAVOK 09/07 Q1029 NOSIG
2020-05-28 04:00 SW 230° 1 - LFSB 280200Z AUTO 23001KT CAVOK 10/07 Q1029 NOSIG
2020-05-28 03:30 S 190° 2 - LFSB 280130Z AUTO 19002KT CAVOK 10/08 Q1029 NOSIG
2020-05-28 03:00 - 0 - LFSB 280100Z AUTO 00000KT CAVOK 11/08 Q1029 NOSIG
2020-05-28 02:30 - 1 - LFSB 280030Z AUTO VRB01KT CAVOK 11/07 Q1029 NOSIG
2020-05-28 02:00 - 0 - LFSB 280000Z AUTO 00000KT CAVOK 12/07 Q1029 NOSIG
2020-05-28 01:30 - 2 - LFSB 272330Z AUTO VRB02KT CAVOK 13/07 Q1029 NOSIG
2020-05-28 01:00 NW 330°
(310°–50°)
5 2–5 LFSB 272300Z AUTO 33005KT 310V050 CAVOK 13/07 Q1029 NOSIG
2020-05-28 00:30 NW 320° 5 5 LFSB 272230Z AUTO 32005KT CAVOK 14/07 Q1029 NOSIG
2020-05-28 00:00 NW 300° 4 3 LFSB 272200Z AUTO 30004KT CAVOK 15/07 Q1029 NOSIG
2020-05-27 23:30 NW 310° 4 3 LFSB 272130Z AUTO 31004KT CAVOK 16/07 Q1029 NOSIG
2020-05-27 23:00 NW 300° 4 3 LFSB 272100Z AUTO 30004KT CAVOK 16/07 Q1029 NOSIG
2020-05-27 22:30 NW 310° 3 3 LFSB 272030Z AUTO 31003KT CAVOK 17/07 Q1029 NOSIG
2020-05-27 22:00 NW 310° 4 3 LFSB 272000Z AUTO 31004KT CAVOK 17/07 Q1029 NOSIG
2020-05-27 21:30 N 350° 5 5 LFSB 271930Z AUTO 35005KT CAVOK 18/07 Q1029 NOSIG
2020-05-27 21:00 N 340° 8 8 LFSB 271900Z AUTO 34008KT CAVOK 19/07 Q1029 NOSIG
2020-05-27 20:30 N 340° 8 8 LFSB 271830Z AUTO 34008KT CAVOK 20/07 Q1029 NOSIG
2020-05-27 20:00 N 350° 8 8 LFSB 271800Z AUTO 35008KT CAVOK 22/07 Q1029 NOSIG
2020-05-27 19:30 N 340° 9 9 LFSB 271730Z AUTO 34009KT CAVOK 22/07 Q1029 NOSIG
2020-05-27 19:00 N 340° 8 8 LFSB 271700Z AUTO 34008KT CAVOK 23/07 Q1029 NOSIG
2020-05-27 18:30 var 360°
(320°–40°)
6 3–6 LFSB 271630Z AUTO 36006KT 320V040 CAVOK 24/08 Q1029 NOSIG
2020-05-27 18:00 - 2 - LFSB 271600Z AUTO VRB02KT CAVOK 24/08 Q1029 NOSIG
2020-05-27 17:30 - 6 - LFSB 271530Z AUTO VRB06KT 9999 FEW026 24/07 Q1029 NOSIG
2020-05-27 17:00 - 5 - LFSB 271500Z AUTO VRB05KT 9999 FEW015 23/07 Q1029 NOSIG
2020-05-27 16:30 var 360°
(270°–50°)
4 1–4 LFSB 271430Z AUTO 36004KT 270V050 CAVOK 24/08 Q1030 NOSIG
2020-05-27 16:00 var 360°
(300°–30°)
6 4–6 LFSB 271400Z AUTO 36006KT 300V030 CAVOK 23/07 Q1030 NOSIG
2020-05-27 15:30 - 7 - LFSB 271330Z AUTO VRB07KT CAVOK 23/09 Q1030 NOSIG
2020-05-27 15:00 var 360°
(320°–30°)
8 5–8 LFSB 271300Z AUTO 36008KT 320V030 CAVOK 23/08 Q1030 NOSIG
2020-05-27 14:30 N 20°
(320°–100°)
6 0–6 LFSB 271230Z AUTO 02006KT 320V100 9999 NCD 22/09 Q1030 NOSIG
2020-05-27 14:00 NO 40°
(310°–80°)
6 0–6 LFSB 271200Z AUTO 04006KT 310V080 9999 FEW015 22/08 Q1031 NOSIG
2020-05-27 13:30 - 5 - LFSB 271130Z AUTO VRB05KT CAVOK 22/08 Q1031 NOSIG
2020-05-27 13:00 N 340°
(300°–20°)
5 4–5 LFSB 271100Z AUTO 34005KT 300V020 CAVOK 21/08 Q1031 NOSIG
2020-05-27 12:30 N 340°
(290°–40°)
5 3–5 LFSB 271030Z AUTO 34005KT 290V040 CAVOK 20/08 Q1031 NOSIG
2020-05-27 12:00 var 360°
(310°–40°)
4 2–4 LFSB 271000Z AUTO 36004KT 310V040 CAVOK 19/06 Q1031 NOSIG
2020-05-27 11:30 NW 310°
(260°–10°)
5 1–5 LFSB 270930Z AUTO 31005KT 260V010 CAVOK 19/08 Q1031 NOSIG
2020-05-27 11:00 NW 330°
(270°–60°)
4 1–4 LFSB 270900Z AUTO 33004KT 270V060 9999 FEW007 18/10 Q1032 NOSIG
2020-05-27 10:30 N 340°
(290°–50°)
4 1–4 LFSB 270830Z AUTO 34004KT 290V050 CAVOK 17/09 Q1032 NOSIG
2020-05-27 10:00 N 340°
(280°–20°)
4 2–4 LFSB 270800Z AUTO 34004KT 280V020 CAVOK 16/08 Q1032 NOSIG
2020-05-27 09:30 NW 320°
(260°–360°)
4 1–4 LFSB 270730Z AUTO 32004KT 260V360 CAVOK 15/09 Q1032 NOSIG
2020-05-27 09:00 NW 320°
(280°–340°)
5 3–5 LFSB 270700Z AUTO 32005KT 280V340 CAVOK 14/08 Q1032 NOSIG
2020-05-27 08:30 NW 310°
(270°–340°)
4 1–4 LFSB 270630Z AUTO 31004KT 270V340 CAVOK 12/09 Q1032 NOSIG
2020-05-27 08:00 NW 320°
(280°–350°)
3 2–3 LFSB 270600Z AUTO 32003KT 280V350 CAVOK 12/08 Q1032 NOSIG
2020-05-27 07:30 NW 330° 6 6 LFSB 270530Z AUTO 33006KT CAVOK 11/08 Q1032 NOSIG